.
WxDataArchive / Data Records for 2008-05-05
2008-05-04 May 2008 2008-05-06

Data Records for Monday, 05 May 2008

Time	Temp	Chill	HIndex	Humid	Dewpt	 Wind 	HiWind	WindDir	Rain 	Barom 
-----	----	-----	------	-----	-----	------	------	-------	-----	----- 
00:00	45.5	45.5	45.5	77	38.7	0	0	---	0.00	30.026 
00:05	45.4	45.4	45.4	77	38.6	0	0	---	0.00	30.022 
00:10	45.2	45.2	45.2	78	38.8	0	0	---	0.00	30.026 
00:15	45.2	45.2	45.2	79	39.1	0	0	---	0.00	30.025 
00:20	45.2	45.2	45.2	79	39.1	0	0	---	0.00	30.026 
00:25	45.1	45.1	45.1	79	39.0	0	0	---	0.00	30.024 
00:30	44.8	44.8	44.8	79	38.7	0	0	---	0.00	30.022 
00:35	44.6	44.6	44.6	79	38.5	0	0	---	0.00	30.021 
00:40	44.5	44.5	44.5	80	38.7	0	0	---	0.00	30.022 
00:45	44.2	44.2	44.2	81	38.7	0	0	---	0.00	30.022 
00:50	44.1	44.1	44.1	81	38.6	0	0	---	0.00	30.020 
00:55	43.9	43.9	43.9	81	38.5	0	0	---	0.00	30.018 
01:00	43.8	43.8	43.8	82	38.7	0	0	---	0.00	30.017 
01:05	43.6	43.6	43.6	82	38.5	0	0	---	0.00	30.016 
01:10	43.6	43.6	43.6	82	38.5	0	0	---	0.00	30.016 
01:15	43.5	43.5	43.5	82	38.4	0	0	---	0.00	30.015 
01:20	43.3	43.3	43.3	82	38.2	0	0	---	0.00	30.014 
01:25	43.2	43.2	43.2	82	38.1	0	0	---	0.00	30.014 
01:30	43.1	43.1	43.1	82	38.0	0	0	---	0.00	30.013 
01:35	42.9	42.9	42.9	83	38.1	0	0	---	0.00	30.013 
01:40	42.8	42.8	42.8	83	38.0	0	0	---	0.00	30.012 
01:45	42.6	42.6	42.6	83	37.8	0	0	---	0.00	30.010 
01:50	42.6	42.6	42.6	84	38.1	0	0	---	0.00	30.010 
01:55	42.6	42.6	42.6	84	38.1	0	0	---	0.00	30.010 
02:00	42.6	42.6	42.6	84	38.1	0	0	---	0.00	30.009 
02:05	42.5	42.5	42.5	84	38.0	0	0	---	0.00	30.006 
02:10	42.5	42.5	42.5	84	38.0	0	0	---	0.00	30.005 
02:15	42.3	42.3	42.3	84	37.8	0	0	---	0.00	30.003 
02:20	42.2	42.2	42.2	84	37.7	0	0	---	0.00	30.001 
02:25	42.1	42.1	42.1	84	37.6	0	0	---	0.00	30.001 
02:30	41.9	41.9	41.9	84	37.4	0	0	---	0.00	30.000 
02:35	41.9	41.9	41.9	84	37.4	0	0	---	0.00	30.001 
02:40	42.1	42.1	42.1	84	37.6	0	0	---	0.00	30.001 
02:45	42.1	42.1	42.1	84	37.6	0	0	---	0.00	30.000 
02:50	41.9	41.9	41.9	84	37.4	0	0	---	0.00	30.000 
02:55	41.8	41.8	41.8	83	37.0	0	0	---	0.00	30.000 
03:00	41.8	41.8	41.8	84	37.3	0	0	---	0.00	29.999 
03:05	41.9	41.9	41.9	84	37.4	0	0	---	0.00	29.999 
03:10	42.1	42.1	42.1	84	37.6	0	0	---	0.00	29.999 
03:15	42.1	42.1	42.1	83	37.3	0	0	---	0.00	29.999 
03:20	42.1	42.1	42.1	83	37.3	0	0	---	0.00	29.999 
03:25	42.2	42.2	42.2	83	37.4	0	0	---	0.00	29.999 
03:30	42.5	42.5	42.5	82	37.4	0	0	---	0.00	29.999 
03:35	42.8	42.8	42.8	81	37.4	0	0	---	0.00	29.998 
03:40	43.1	43.1	43.1	80	37.4	0	0	---	0.00	29.998 
03:45	43.3	43.3	43.3	79	37.2	0	0	---	0.00	29.999 
03:50	43.8	43.8	43.8	77	37.1	0	0	---	0.00	30.001 
03:55	44.2	44.2	44.2	76	37.1	0	0	---	0.00	30.002 
04:00	44.5	44.5	44.5	74	36.7	0	0	---	0.00	30.000 
04:05	44.8	44.8	44.8	73	36.7	0	0	---	0.00	30.003 
04:10	45.1	45.1	45.1	72	36.6	0	1	248	0.00	30.001 
04:15	45.4	45.4	45.4	71	36.6	0	1	---	0.00	30.001 
04:20	45.7	45.7	45.7	70	36.5	0	1	248	0.00	29.999 
04:25	45.8	45.8	45.8	70	36.6	0	0	---	0.00	29.998 
04:30	46.0	46.0	46.0	69	36.4	0	0	---	0.00	29.998 
04:35	46.0	46.0	46.0	69	36.4	0	0	---	0.00	29.998 
04:40	46.1	46.1	46.1	69	36.5	0	0	---	0.00	29.999 
04:45	46.0	46.0	46.0	69	36.4	0	0	---	0.00	30.000 
04:50	46.0	46.0	46.0	69	36.4	0	0	---	0.00	30.000 
04:55	45.8	45.8	45.8	69	36.2	0	0	---	0.00	30.003 
05:00	45.8	45.8	45.8	69	36.2	0	0	---	0.00	30.003 
05:05	45.8	45.8	45.8	69	36.2	0	1	248	0.00	30.005 
05:10	46.1	46.1	46.1	69	36.5	0	1	248	0.00	30.004 
05:15	46.2	46.2	46.2	68	36.2	0	1	248	0.00	30.006 
05:20	46.5	46.5	46.5	68	36.5	0	1	248	0.00	30.007 
05:25	46.8	46.8	46.8	67	36.4	0	2	248	0.00	30.008 
05:30	47.3	47.3	47.3	66	36.5	0	1	248	0.00	30.009 
05:35	47.7	47.7	47.7	65	36.5	0	3	248	0.00	30.008 
05:40	47.9	47.9	47.9	65	36.7	0	1	248	0.00	30.008 
05:45	47.9	47.9	47.9	65	36.7	0	1	248	0.00	30.008 
05:50	47.9	47.9	47.9	65	36.7	0	1	248	0.00	30.008 
05:55	47.9	47.9	47.9	65	36.7	0	1	248	0.00	30.008 
06:00	47.9	47.9	47.9	65	36.7	0	2	248	0.00	30.009 
06:05	48.0	48.0	48.0	65	36.8	0	1	248	0.00	30.011 
06:10	48.2	48.2	48.2	65	37.0	0	1	248	0.00	30.011 
06:15	48.3	48.3	48.3	65	37.1	0	1	248	0.00	30.012 
06:20	48.5	48.5	48.5	64	36.9	0	1	248	0.00	30.011 
06:25	48.9	48.9	48.9	65	37.7	0	1	248	0.00	30.012 
06:30	49.4	49.4	49.4	63	37.3	0	1	248	0.00	30.012 
06:35	50.1	50.1	50.1	62	37.6	0	2	248	0.00	30.010 
06:40	50.7	50.7	50.7	61	37.7	0	2	248	0.00	30.013 
06:45	51.3	51.3	51.3	60	37.9	0	4	248	0.00	30.015 
06:50	51.7	51.7	51.7	59	37.8	1	3	225	0.00	30.015 
06:55	52.3	52.3	52.3	58	38.0	1	3	225	0.00	30.013 
07:00	52.8	52.8	52.8	58	38.4	0	2	248	0.00	30.012 
07:05	53.2	53.2	53.2	57	38.4	1	2	248	0.00	30.016 
07:10	53.6	53.6	53.6	56	38.3	1	5	248	0.00	30.016 
07:15	54.1	54.1	54.1	55	38.3	1	4	248	0.00	30.019 
07:20	54.5	54.5	54.5	54	38.2	1	4	248	0.00	30.019 
07:25	54.8	54.8	54.8	53	38.0	1	4	248	0.00	30.021 
07:30	55.3	55.3	55.3	52	38.0	1	2	248	0.00	30.021 
07:35	55.7	55.7	55.7	51	37.9	1	4	248	0.00	30.022 
07:40	56.2	56.2	56.2	52	38.8	1	2	248	0.00	30.022 
07:45	56.5	56.5	56.5	51	38.6	1	5	248	0.00	30.021 
07:50	56.9	56.9	56.9	50	38.5	1	4	248	0.00	30.021 
07:55	57.2	57.2	57.2	49	38.2	2	5	248	0.00	30.021 
08:00	57.8	57.8	57.8	51	39.8	0	2	248	0.00	30.021 
08:05	58.3	58.3	58.3	50	39.7	1	3	248	0.00	30.025 
08:10	58.7	58.7	58.7	48	39.1	1	5	248	0.00	30.023 
08:15	59.2	59.2	59.2	47	39.0	1	4	248	0.00	30.025 
08:20	59.5	59.5	59.5	46	38.7	2	4	248	0.00	30.025 
08:25	59.6	59.6	59.6	47	39.3	2	5	248	0.00	30.025 
08:30	59.9	59.9	59.9	46	39.1	2	6	248	0.00	30.024 
08:35	60.4	60.4	60.4	45	39.0	1	3	248	0.00	30.024 
08:40	60.7	60.7	60.7	45	39.2	2	4	248	0.00	30.022 
08:45	61.0	61.0	61.0	47	40.6	1	4	270	0.00	30.023 
08:50	61.8	61.8	61.8	44	39.7	1	5	248	0.00	30.023 
08:55	62.3	62.3	62.3	45	40.7	1	5	248	0.00	30.022 
09:00	62.6	62.6	62.6	44	40.4	1	3	248	0.00	30.021 
09:05	62.9	62.9	62.9	42	39.5	2	5	248	0.00	30.025 
09:10	63.1	63.1	63.1	46	42.0	2	5	248	0.00	30.025 
09:15	63.4	63.4	63.4	43	40.5	2	4	248	0.00	30.023 
09:20	63.5	63.5	63.5	43	40.6	2	6	248	0.00	30.025 
09:25	63.9	63.9	63.9	43	41.0	2	5	248	0.00	30.024 
09:30	64.3	64.3	64.3	43	41.3	1	5	248	0.00	30.024 
09:35	65.0	65.0	65.0	42	41.3	1	4	248	0.00	30.021 
09:40	65.5	65.5	65.5	42	41.8	2	5	248	0.00	30.020 
09:45	65.6	65.6	65.6	39	40.0	2	6	248	0.00	30.022 
09:50	66.1	66.1	66.1	40	41.1	1	5	248	0.00	30.023 
09:55	66.1	66.1	66.1	38	39.7	2	5	270	0.00	30.024 
10:00	66.1	66.1	66.1	38	39.7	2	4	248	0.00	30.022 
10:05	66.1	66.1	66.1	38	39.7	2	4	248	0.00	30.022 
10:10	66.6	66.6	66.6	42	42.8	2	4	248	0.00	30.023 
10:15	67.3	67.3	67.3	42	43.4	2	3	248	0.00	30.020 
10:20	67.6	67.6	67.6	36	39.7	3	6	270	0.00	30.021 
10:25	67.8	67.8	67.8	33	37.6	3	7	248	0.00	30.022 
10:30	67.9	67.9	67.9	34	38.5	3	5	248	0.00	30.023 
10:35	67.6	67.6	67.6	32	36.7	4	9	248	0.00	30.020 
10:40	67.6	67.6	67.6	35	39.0	3	9	248	0.00	30.019 
10:45	68.1	68.1	68.1	33	37.9	3	5	248	0.00	30.016 
10:50	68.3	68.3	68.3	33	38.1	3	6	270	0.00	30.018 
10:55	68.6	68.6	68.6	33	38.3	2	9	248	0.00	30.020 
11:00	69.1	69.1	69.1	33	38.8	2	5	248	0.00	30.017 
11:05	69.1	69.1	69.1	34	39.5	3	9	270	0.00	30.018 
11:10	69.4	69.4	69.4	33	39.0	2	5	270	0.00	30.017 
11:15	69.9	69.9	69.9	31	37.9	2	6	248	0.00	30.013 
11:20	70.1	70.1	70.1	34	40.4	2	4	248	0.00	30.010 
11:25	69.9	69.9	69.9	34	40.2	3	7	270	0.00	30.013 
11:30	69.8	69.8	69.8	30	37.0	3	7	248	0.00	30.010 
11:35	69.9	69.9	69.9	29	36.2	3	6	270	0.00	30.009 
11:40	70.3	70.3	70.3	31	38.2	2	5	248	0.00	30.005 
11:45	70.4	70.4	70.4	31	38.3	2	5	248	0.00	30.002 
11:50	70.9	70.9	70.9	29	37.0	2	8	248	0.00	30.003 
11:55	70.9	70.9	70.9	30	37.9	2	5	248	0.00	30.000 
12:00	70.8	70.8	70.8	28	36.1	3	7	248	0.00	29.999 
12:05	71.1	71.1	71.1	28	36.3	2	7	248	0.00	29.996 
12:10	71.5	71.5	71.5	29	37.6	2	6	270	0.00	29.996 
12:15	71.6	71.6	71.6	29	37.6	2	5	270	0.00	29.994 
12:20	71.6	71.6	71.6	31	39.4	2	4	270	0.00	29.992 
12:25	71.8	71.8	71.8	31	39.5	2	5	248	0.00	29.990 
12:30	72.3	72.3	72.3	29	38.3	2	5	248	0.00	29.990 
12:35	72.3	72.3	72.3	29	38.3	3	6	270	0.00	29.991 
12:40	72.3	72.3	72.3	29	38.3	2	5	248	0.00	29.985 
12:45	72.3	72.3	72.3	29	38.3	3	6	248	0.00	29.985 
12:50	72.0	72.0	72.0	27	36.2	3	7	270	0.00	29.982 
12:55	72.1	72.1	72.1	28	37.2	3	9	248	0.00	29.987 
13:00	72.5	72.5	72.5	31	40.1	2	10	248	0.00	29.982 
13:05	73.0	73.0	73.0	31	40.6	2	5	248	0.00	29.982 
13:10	73.0	73.0	73.0	28	38.0	2	7	248	0.00	29.982 
13:15	73.0	73.0	73.0	27	37.0	2	4	248	0.00	29.980 
13:20	72.7	72.7	72.7	31	40.3	2	9	248	0.00	29.980 
13:25	72.8	72.8	72.8	28	37.8	2	7	248	0.00	29.978 
13:30	72.8	72.8	72.8	28	37.8	2	6	248	0.00	29.977 
13:35	73.0	73.0	73.0	27	37.0	2	6	248	0.00	29.978 
13:40	72.8	72.8	72.8	29	38.7	2	6	292	0.00	29.978 
13:45	73.2	73.2	73.2	28	38.1	3	9	248	0.00	29.977 
13:50	73.0	73.0	73.0	28	38.0	3	11	292	0.00	29.977 
13:55	71.8	71.8	71.8	27	36.0	2	4	248	0.00	29.978 
14:00	72.7	72.7	72.7	30	39.5	2	10	248	0.00	29.978 
14:05	73.0	73.0	73.0	28	38.0	3	9	270	0.00	29.977 
14:10	73.3	73.3	73.3	30	40.0	3	9	248	0.00	29.974 
14:15	73.7	73.7	73.7	27	37.6	2	6	248	0.00	29.972 
14:20	73.9	73.9	73.9	29	39.6	3	5	270	0.00	29.974 
14:25	73.7	73.7	73.7	30	40.3	1	3	248	0.00	29.974 
14:30	74.2	74.2	74.2	28	39.0	2	5	270	0.00	29.975 
14:35	72.8	72.8	72.8	27	36.9	3	6	248	0.00	29.978 
14:40	71.8	71.8	71.8	29	37.8	3	7	248	0.00	29.976 
14:45	71.1	71.1	71.1	31	38.9	2	6	248	0.00	29.978 
14:50	70.9	70.9	70.9	31	38.7	1	3	270	0.00	29.977 
14:55	70.9	70.9	70.9	32	39.6	1	3	270	0.00	29.976 
15:00	70.9	70.9	70.9	31	38.7	1	5	270	0.00	29.968 
15:05	71.5	71.5	71.5	31	39.3	3	9	270	0.00	29.964 
15:10	71.6	71.6	71.6	32	40.2	3	9	248	0.00	29.965 
15:15	71.6	71.6	71.6	34	41.7	2	4	270	0.00	29.962 
15:20	72.0	72.0	72.0	34	42.1	3	5	270	0.00	29.962 
15:25	72.1	72.1	72.1	31	39.8	2	4	270	0.00	29.961 
15:30	71.3	71.3	71.3	30	38.3	2	5	248	0.00	29.961 
15:35	71.1	71.1	71.1	31	38.9	2	3	248	0.00	29.960 
15:40	72.0	72.0	72.0	30	38.9	2	5	248	0.00	29.959 
15:45	72.3	72.3	72.3	29	38.3	2	5	248	0.00	29.959 
15:50	72.0	72.0	72.0	32	40.5	2	9	248	0.00	29.959 
15:55	71.5	71.5	71.5	31	39.3	3	5	248	0.00	29.960 
16:00	71.6	71.6	71.6	30	38.5	1	5	248	0.00	29.959 
16:05	71.6	71.6	71.6	30	38.5	2	5	248	0.00	29.958 
16:10	71.1	71.1	71.1	31	38.9	2	7	248	0.00	29.960 
16:15	70.9	70.9	70.9	32	39.6	2	6	248	0.00	29.960 
16:20	70.8	70.8	70.8	32	39.5	1	4	248	0.00	29.958 
16:25	70.6	70.6	70.6	32	39.3	2	5	248	0.00	29.959 
16:30	70.6	70.6	70.6	31	38.5	2	4	248	0.00	29.958 
16:35	70.8	70.8	70.8	31	38.7	3	9	248	0.00	29.957 
16:40	70.8	70.8	70.8	32	39.5	2	5	248	0.00	29.956 
16:45	70.8	70.8	70.8	32	39.5	1	3	248	0.00	29.953 
16:50	70.9	70.9	70.9	32	39.6	0	2	248	0.00	29.951 
16:55	71.3	71.3	71.3	33	40.7	1	3	292	0.00	29.951 
17:00	71.3	71.3	71.3	29	37.4	3	5	270	0.00	29.949 
17:05	71.1	71.1	71.1	29	37.2	2	5	248	0.00	29.947 
17:10	71.1	71.1	71.1	29	37.2	2	6	248	0.00	29.945 
17:15	70.9	70.9	70.9	30	37.9	2	4	248	0.00	29.945 
17:20	70.9	70.9	70.9	29	37.0	2	6	270	0.00	29.945 
17:25	70.9	70.9	70.9	31	38.7	2	6	248	0.00	29.944 
17:30	70.8	70.8	70.8	30	37.8	3	7	248	0.00	29.944 
17:35	70.4	70.4	70.4	32	39.1	1	5	248	0.00	29.943 
17:40	70.3	70.3	70.3	31	38.2	2	6	248	0.00	29.943 
17:45	70.1	70.1	70.1	31	38.1	3	7	248	0.00	29.942 
17:50	70.1	70.1	70.1	31	38.1	2	7	248	0.00	29.942 
17:55	69.9	69.9	69.9	31	37.9	1	5	248	0.00	29.942 
18:00	69.6	69.6	69.6	33	39.2	1	4	248	0.00	29.943 
18:05	69.4	69.4	69.4	32	38.3	1	5	248	0.00	29.939 
18:10	69.4	69.4	69.4	32	38.3	1	3	248	0.00	29.940 
18:15	69.1	69.1	69.1	33	38.8	1	2	248	0.00	29.940 
18:20	68.9	68.9	68.9	34	39.4	0	2	248	0.00	29.940 
18:25	68.9	68.9	68.9	34	39.4	0	2	292	0.00	29.943 
18:30	68.1	68.1	68.1	41	43.5	2	6	292	0.00	29.963 
18:35	65.5	65.5	65.5	47	44.7	3	10	315	0.00	29.958 
18:40	64.0	64.0	64.0	51	45.5	2	5	338	0.00	29.955 
18:45	62.4	62.4	62.4	60	48.3	1	3	338	0.00	29.958 
18:50	61.2	61.2	61.2	64	48.9	1	5	22	0.00	29.959 
18:55	60.5	60.5	60.5	64	48.3	0	3	338	0.00	29.958 
19:00	60.4	60.4	60.4	63	47.7	1	4	338	0.00	29.962 
19:05	60.4	60.4	60.4	63	47.7	0	3	338	0.00	29.957 
19:10	60.5	60.5	60.5	62	47.4	0	1	338	0.00	29.958 
19:15	60.5	60.5	60.5	62	47.4	0	1	338	0.00	29.960 
19:20	60.7	60.7	60.7	61	47.2	0	1	338	0.00	29.960 
19:25	61.2	61.2	61.2	58	46.3	0	2	338	0.00	29.968 
19:30	61.3	61.3	61.3	58	46.4	0	4	338	0.00	29.969 
19:35	61.3	61.3	61.3	55	45.0	1	5	270	0.00	29.963 
19:40	61.3	61.3	61.3	55	45.0	0	2	315	0.00	29.959 
19:45	61.3	61.3	61.3	55	45.0	0	1	315	0.00	29.959 
19:50	61.5	61.5	61.5	54	44.7	0	1	315	0.00	29.960 
19:55	61.6	61.6	61.6	54	44.8	0	1	315	0.00	29.962 
20:00	61.8	61.8	61.8	52	44.0	0	1	315	0.00	29.969 
20:05	62.1	62.1	62.1	52	44.3	0	2	315	0.00	29.963 
20:10	62.1	62.1	62.1	51	43.8	0	2	338	0.00	29.955 
20:15	62.1	62.1	62.1	51	43.8	0	1	338	0.00	29.957 
20:20	62.0	62.0	62.0	52	44.2	0	1	338	0.00	29.960 
20:25	61.8	61.8	61.8	53	44.5	0	0	---	0.00	29.957 
20:30	61.5	61.5	61.5	53	44.2	0	0	---	0.00	29.962 
20:35	61.2	61.2	61.2	54	44.4	0	0	---	0.00	29.966 
20:40	60.9	60.9	60.9	56	45.1	0	1	338	0.00	29.968 
20:45	60.5	60.5	60.5	57	45.2	0	0	---	0.00	29.964 
20:50	60.1	60.1	60.1	58	45.3	0	2	338	0.00	29.960 
20:55	59.6	59.6	59.6	58	44.8	0	1	338	0.00	29.956 
21:00	59.3	59.3	59.3	58	44.5	0	0	---	0.00	29.959 
21:05	58.9	58.9	58.9	59	44.6	0	0	---	0.00	29.963 
21:10	58.6	58.6	58.6	60	44.8	0	0	---	0.00	29.966 
21:15	58.4	58.4	58.4	61	45.0	0	0	---	0.00	29.970 
21:20	58.4	58.4	58.4	62	45.4	0	1	338	0.00	29.976 
21:25	58.4	58.4	58.4	62	45.4	0	1	338	0.00	29.974 
21:30	58.6	58.6	58.6	61	45.2	0	1	338	0.00	29.970 
21:35	58.7	58.7	58.7	60	44.8	0	1	338	0.00	29.970 
21:40	58.7	58.7	58.7	61	45.3	0	0	---	0.00	29.970 
21:45	58.7	58.7	58.7	61	45.3	0	0	---	0.00	29.969 
21:50	58.6	58.6	58.6	61	45.2	0	0	---	0.00	29.969 
21:55	58.3	58.3	58.3	61	44.9	0	0	---	0.00	29.970 
22:00	58.1	58.1	58.1	62	45.1	0	0	---	0.00	29.969 
22:05	58.1	58.1	58.1	64	46.0	0	0	---	0.00	29.967 
22:10	57.8	57.8	57.8	64	45.7	0	0	---	0.00	29.968 
22:15	57.8	57.8	57.8	64	45.7	0	0	---	0.00	29.969 
22:20	57.8	57.8	57.8	65	46.1	0	1	338	0.00	29.968 
22:25	57.6	57.6	57.6	66	46.3	0	0	---	0.00	29.968 
22:30	57.6	57.6	57.6	66	46.3	0	0	---	0.00	29.968 
22:35	57.6	57.6	57.6	66	46.3	0	0	---	0.00	29.968 
22:40	57.5	57.5	57.5	66	46.2	0	0	---	0.00	29.968 
22:45	57.3	57.3	57.3	66	46.0	0	0	---	0.00	29.969 
22:50	57.2	57.2	57.2	67	46.3	0	0	---	0.00	29.969 
22:55	57.0	57.0	57.0	68	46.5	0	0	---	0.00	29.971 
23:00	56.9	56.9	56.9	68	46.4	0	0	---	0.00	29.970 
23:05	56.7	56.7	56.7	70	47.0	0	0	---	0.00	29.969 
23:10	56.6	56.6	56.6	70	46.9	0	0	---	0.00	29.968 
23:15	56.5	56.5	56.5	70	46.8	0	0	---	0.00	29.968 
23:20	56.3	56.3	56.3	71	47.0	0	0	---	0.00	29.970 
23:25	56.2	56.2	56.2	72	47.3	0	0	---	0.00	29.970 
23:30	56.0	56.0	56.0	72	47.1	0	0	---	0.00	29.970 
23:35	55.9	55.9	55.9	73	47.4	0	0	---	0.00	29.970 
23:40	55.9	55.9	55.9	73	47.4	0	0	---	0.00	29.969 
23:45	55.9	55.9	55.9	73	47.4	0	0	---	0.00	29.968 
23:50	56.0	56.0	56.0	73	47.5	0	0	---	0.00	29.968 
23:55	56.2	56.2	56.2	73	47.7	0	1	338	0.00	29.969 

CoCoRaHS
IN-AL-39
A2 Web Hosting
Creative Commons License
GoDaddy
Look for:

loaded 2017-12-13 02:29:44 • last modified 2010-11-18 10:43:29
Privacy PolicyDisclaimer
• wx.awcolley.com is powered by PmWiki v.2002016 •
• all content (unless otherwise noted) © 2017 A W Colley